Time;durP1;ratioP1;P1;durP2;ratioP2;P2;SDS_P1;SDS_P2;PMS_P1;PMS_P2;Temp;Humidity;BMP_temperature;BMP_pressure;BME280_temperature;BME280_humidity;BME280_pressure;Samples;Min_cycle;Max_cycle;Signal;HPM_P1;HPM_P2
2022/11/10 00:01:06;;;;;;;13.32;2.40;;;9.60;99.90;;;;;;4979343;28;20477;-82
2022/11/10 00:03:33;;;;;;;11.65;2.75;;;9.60;99.90;;;;;;5013326;28;20061;-81
2022/11/10 00:06:04;;;;;;;6.10;2.20;;;9.60;99.90;;;;;;5020024;28;20054;-80
2022/11/10 00:08:30;;;;;;;15.25;2.05;;;9.60;99.90;;;;;;5012880;28;20100;-80
2022/11/10 00:10:56;;;;;;;9.30;2.30;;;9.60;99.90;;;;;;4995733;28;20085;-82
2022/11/10 00:13:28;;;;;;;11.00;2.42;;;9.60;99.90;;;;;;4995798;28;20136;-81
2022/11/10 00:18:54;;;;;;;10.95;2.05;;;9.60;99.90;;;;;;4972627;28;20061;-82
2022/11/10 00:21:20;;;;;;;8.48;2.00;;;9.60;99.90;;;;;;5012328;28;20042;-81
2022/11/10 00:23:46;;;;;;;12.82;2.28;;;9.60;99.90;;;;;;4996759;28;20057;-81
2022/11/10 00:26:17;;;;;;;20.35;2.50;;;9.50;99.90;;;;;;5015684;28;20074;-82
2022/11/10 00:28:44;;;;;;;11.38;2.47;;;9.60;99.90;;;;;;5012658;28;20404;-82
2022/11/10 00:31:11;;;;;;;10.40;2.20;;;9.50;99.90;;;;;;5012422;28;20064;-82
2022/11/10 00:33:39;;;;;;;12.27;2.65;;;9.50;99.90;;;;;;5011983;28;20056;-81
2022/11/10 00:36:05;;;;;;;7.60;2.05;;;9.50;99.90;;;;;;4978342;28;20505;-81
2022/11/10 00:38:31;;;;;;;9.63;1.77;;;9.50;99.90;;;;;;4994990;28;20072;-82
2022/11/10 00:40:58;;;;;;;10.65;2.30;;;9.50;99.90;;;;;;5013037;28;20132;-80
2022/11/10 00:43:25;;;;;;;14.27;2.00;;;9.50;99.90;;;;;;5013906;28;20058;-82
2022/11/10 00:45:51;;;;;;;7.68;1.70;;;9.60;99.90;;;;;;4996557;28;20569;-80
2022/11/10 00:48:17;;;;;;;11.02;2.63;;;9.60;99.90;;;;;;5012752;28;20132;-81
2022/11/10 00:50:43;;;;;;;11.00;2.28;;;9.60;99.90;;;;;;4978299;28;20061;-80
2022/11/10 00:53:09;;;;;;;13.93;2.40;;;9.60;99.90;;;;;;4994468;28;20057;-81
2022/11/10 00:55:39;;;;;;;11.15;2.10;;;9.50;99.90;;;;;;4962193;28;20057;-81
2022/11/10 00:58:05;;;;;;;8.60;2.15;;;9.50;99.90;;;;;;4994652;28;20065;-81
2022/11/10 01:00:31;;;;;;;13.52;2.28;;;9.50;99.90;;;;;;5015504;28;20045;-81
2022/11/10 01:02:57;;;;;;;12.20;1.83;;;9.40;99.90;;;;;;4994382;28;20042;-80
2022/11/10 01:05:23;;;;;;;12.27;2.97;;;9.40;99.90;;;;;;4994190;28;20046;-81
2022/11/10 01:07:49;;;;;;;11.52;3.35;;;9.40;99.90;;;;;;5011732;28;20065;-82
2022/11/10 01:10:16;;;;;;;13.80;3.88;;;9.40;99.90;;;;;;5012308;28;20425;-82
2022/11/10 01:12:41;;;;;;;10.25;2.95;;;9.40;99.90;;;;;;4995289;28;20133;-80
2022/11/10 01:15:08;;;;;;;15.93;3.10;;;9.40;99.90;;;;;;4993698;28;20608;-81
2022/11/10 01:17:34;;;;;;;17.55;2.65;;;9.40;99.90;;;;;;4991785;28;20043;-81
2022/11/10 01:20:00;;;;;;;16.67;3.03;;;9.40;99.90;;;;;;4992760;28;20066;-81
2022/11/10 01:22:26;;;;;;;15.13;3.75;;;9.40;99.90;;;;;;4974771;28;20065;-80
2022/11/10 01:24:52;;;;;;;12.07;2.85;;;9.40;99.90;;;;;;4990919;28;20050;-81
2022/11/10 01:27:18;;;;;;;11.27;2.58;;;9.40;99.90;;;;;;4974815;28;20073;-81
2022/11/10 01:29:44;;;;;;;11.30;2.40;;;9.40;99.90;;;;;;4974799;28;20084;-82
2022/11/10 01:32:10;;;;;;;12.00;2.40;;;9.40;99.90;;;;;;4992422;28;20046;-80
2022/11/10 01:34:36;;;;;;;11.55;3.00;;;9.40;99.90;;;;;;4978340;28;20054;-80
2022/11/10 01:37:02;;;;;;;16.67;2.97;;;9.30;99.90;;;;;;4974809;28;20086;-81
2022/11/10 01:39:28;;;;;;;13.90;3.45;;;9.30;99.90;;;;;;4991385;28;20410;-81
2022/11/10 01:41:54;;;;;;;12.48;2.60;;;9.30;99.90;;;;;;4976496;28;20046;-82
2022/11/10 01:44:22;;;;;;;20.38;3.92;;;9.30;99.90;;;;;;4975848;28;20074;-84
2022/11/10 01:46:48;;;;;;;14.45;3.15;;;9.30;99.90;;;;;;4974917;28;20046;-82
2022/11/10 01:49:23;;;;;;;11.63;2.70;;;9.30;99.90;;;;;;4973529;28;20131;-80
2022/11/10 01:51:52;;;;;;;;;;;9.30;99.90;;;;;;4980554;28;20057;-81
2022/11/10 01:54:33;;;;;;;17.90;3.22;;;9.30;99.90;;;;;;4974065;28;19961;-81
2022/11/10 01:57:04;;;;;;;13.23;2.58;;;9.30;99.90;;;;;;4973868;28;20058;-82
2022/11/10 01:59:37;;;;;;;15.55;2.85;;;9.30;99.90;;;;;;4973788;28;20050;-82
2022/11/10 02:02:14;;;;;;;11.60;2.47;;;9.30;99.90;;;;;;4974388;28;20057;-80
2022/11/10 02:04:41;;;;;;;18.73;3.20;;;9.30;99.90;;;;;;4992027;28;20453;-82
2022/11/10 02:07:07;;;;;;;15.80;2.85;;;9.30;99.90;;;;;;4991102;28;20129;-82
2022/11/10 02:09:33;;;;;;;13.23;2.83;;;9.30;99.90;;;;;;4974385;28;20525;-80
2022/11/10 02:11:59;;;;;;;13.88;2.85;;;9.30;99.90;;;;;;4994835;28;20086;-80
2022/11/10 02:14:25;;;;;;;12.35;3.20;;;9.30;99.90;;;;;;4994665;28;20069;-81
2022/11/10 02:16:51;;;;;;;15.52;3.80;;;9.30;99.90;;;;;;4987916;28;20104;-82
2022/11/10 02:19:23;;;;;;;15.20;2.60;;;9.30;99.90;;;;;;4993127;28;20053;-82
2022/11/10 02:21:49;;;;;;;20.65;3.33;;;9.30;99.90;;;;;;4993512;28;20124;-81
2022/11/10 02:24:16;;;;;;;23.25;3.60;;;9.30;99.90;;;;;;5011896;28;20050;-82
2022/11/10 02:26:53;;;;;;;16.45;3.35;;;9.30;99.90;;;;;;5011149;28;20061;-81
2022/11/10 02:29:21;;;;;;;13.93;3.60;;;9.30;99.90;;;;;;5011879;28;20057;-79
2022/11/10 02:31:47;;;;;;;14.82;3.70;;;9.30;99.90;;;;;;4980603;28;20421;-82
2022/11/10 02:34:13;;;;;;;12.27;3.45;;;9.30;99.90;;;;;;4993782;28;20498;-81
2022/11/10 02:36:39;;;;;;;12.75;4.53;;;9.30;99.90;;;;;;5012289;28;20391;-81
2022/11/10 02:39:05;;;;;;;14.10;4.32;;;9.30;99.90;;;;;;4993558;28;20092;-82
2022/11/10 02:41:31;;;;;;;23.75;5.35;;;9.30;99.90;;;;;;4993107;28;20050;-81
2022/11/10 02:43:58;;;;;;;16.73;5.30;;;9.30;99.90;;;;;;5010714;28;20050;-81
2022/11/10 02:46:24;;;;;;;20.42;5.10;;;9.30;99.90;;;;;;5010646;28;20111;-82
2022/11/10 02:48:51;;;;;;;27.13;5.63;;;9.30;99.90;;;;;;5014553;28;20058;-82
2022/11/10 02:51:17;;;;;;;14.70;4.68;;;9.30;99.90;;;;;;5010674;28;20104;-82
2022/11/10 02:53:43;;;;;;;25.10;5.20;;;9.40;99.90;;;;;;4992859;28;20053;-82
2022/11/10 02:56:09;;;;;;;19.63;6.05;;;9.30;99.90;;;;;;4992677;28;20069;-83
2022/11/10 02:58:35;;;;;;;17.83;5.82;;;9.30;99.90;;;;;;4993230;28;20072;-82
2022/11/10 03:01:04;;;;;;;16.55;6.13;;;9.30;99.90;;;;;;4994679;28;20585;-82
2022/11/10 03:03:30;;;;;;;23.75;6.25;;;9.30;99.90;;;;;;5018361;28;20068;-81
2022/11/10 03:05:56;;;;;;;21.02;5.90;;;9.30;99.90;;;;;;4996648;28;20378;-81
2022/11/10 03:08:22;;;;;;;21.20;6.45;;;9.30;99.90;;;;;;4996430;28;20057;-81
2022/11/10 03:10:52;;;;;;;20.23;5.18;;;9.30;99.90;;;;;;5014312;28;20449;-80
2022/11/10 03:13:18;;;;;;;19.17;5.85;;;9.30;99.90;;;;;;5013579;28;20104;-82
2022/11/10 03:15:46;;;;;;;25.30;6.47;;;9.30;99.90;;;;;;5013420;28;20066;-81
2022/11/10 03:18:12;;;;;;;24.20;5.93;;;9.30;99.90;;;;;;5018854;28;20046;-80
2022/11/10 03:20:38;;;;;;;25.70;6.38;;;9.30;99.90;;;;;;4982946;28;20084;-82
2022/11/10 03:23:04;;;;;;;24.50;6.10;;;9.30;99.90;;;;;;5013819;28;20089;-81
2022/11/10 03:25:30;;;;;;;24.42;6.55;;;9.30;99.90;;;;;;4996258;28;20050;-81
2022/11/10 03:27:56;;;;;;;22.65;6.05;;;9.30;99.90;;;;;;5013893;28;20046;-81
2022/11/10 03:30:22;;;;;;;22.75;6.35;;;9.30;99.90;;;;;;5014748;28;20054;-81
2022/11/10 03:32:48;;;;;;;26.15;5.85;;;9.30;99.90;;;;;;4997108;28;20048;-80
2022/11/10 03:35:14;;;;;;;25.45;6.80;;;9.30;99.90;;;;;;5001768;28;20113;-82
2022/11/10 03:37:41;;;;;;;27.90;5.80;;;9.30;99.90;;;;;;4996665;28;20140;-81
2022/11/10 03:40:08;;;;;;;34.60;6.72;;;9.40;99.90;;;;;;5013352;28;20525;-80
2022/11/10 03:42:34;;;;;;;27.35;6.07;;;9.40;99.90;;;;;;5013724;28;20049;-82
2022/11/10 03:45:00;;;;;;;22.80;6.18;;;9.40;99.90;;;;;;5014551;28;20076;-81
2022/11/10 03:47:26;;;;;;;25.25;6.05;;;9.50;99.90;;;;;;4996925;28;20050;-80
2022/11/10 03:49:52;;;;;;;20.27;6.82;;;9.50;99.90;;;;;;4999863;28;20058;-79
2022/11/10 03:52:18;;;;;;;25.67;6.38;;;9.50;99.90;;;;;;4980635;28;20068;-82
2022/11/10 03:54:44;;;;;;;26.75;6.47;;;9.60;99.90;;;;;;4997000;28;20096;-81
2022/11/10 03:57:10;;;;;;;25.23;6.82;;;9.60;99.90;;;;;;4996958;28;20089;-80
2022/11/10 03:59:36;;;;;;;22.42;6.22;;;9.50;99.90;;;;;;4997380;28;20130;-80
2022/11/10 04:02:02;;;;;;;24.20;7.68;;;9.60;99.90;;;;;;4997982;28;20054;-81
2022/11/10 04:10:00;;;;;;;23.08;7.05;;;9.50;99.90;;;;;;5002187;28;20064;-81
2022/11/10 04:18:19;;;;;;;25.00;6.00;;;9.60;99.90;;;;;;4995726;28;20045;-80
2022/11/10 04:20:45;;;;;;;28.10;7.40;;;9.60;99.90;;;;;;5013086;28;20057;-81
2022/11/10 04:23:27;;;;;;;24.13;7.60;;;9.60;99.90;;;;;;4985642;28;20054;-81
2022/11/10 04:28:51;;;;;;;27.05;6.65;;;9.70;99.90;;;;;;4995052;28;20648;-80
2022/11/10 04:31:19;;;;;;;22.35;6.97;;;9.70;99.90;;;;;;4995191;28;20647;-81
2022/11/10 04:33:46;;;;;;;36.08;6.88;;;9.70;99.90;;;;;;4994770;28;20509;-80
2022/11/10 04:36:15;;;;;;;28.08;7.90;;;9.80;99.90;;;;;;4994793;28;20050;-81
2022/11/10 04:38:41;;;;;;;24.33;6.05;;;9.70;99.90;;;;;;4994692;28;20489;-81
2022/11/10 04:41:07;;;;;;;21.27;5.43;;;9.70;99.90;;;;;;5014126;28;20057;-83
2022/11/10 04:43:34;;;;;;;22.75;6.35;;;9.70;99.90;;;;;;5013628;28;20062;-81
2022/11/10 04:46:01;;;;;;;26.27;7.32;;;9.70;99.90;;;;;;4994683;28;20049;-80
2022/11/10 04:48:28;;;;;;;25.63;6.70;;;9.70;99.90;;;;;;5012126;28;20054;-81
2022/11/10 04:50:55;;;;;;;31.60;6.72;;;9.70;99.90;;;;;;5012385;28;20460;-81
2022/11/10 04:53:21;;;;;;;25.00;7.10;;;9.80;99.90;;;;;;5011983;28;20108;-82
2022/11/10 04:55:47;;;;;;;22.33;6.88;;;9.80;99.90;;;;;;5011991;28;20471;-81
2022/11/10 04:58:14;;;;;;;28.13;7.30;;;9.80;99.90;;;;;;5012044;28;20081;-80
2022/11/10 05:00:40;;;;;;;29.48;6.75;;;9.80;99.90;;;;;;5001260;28;20071;-81
2022/11/10 05:03:09;;;;;;;32.40;7.68;;;9.80;99.90;;;;;;5004823;28;20049;-81
2022/11/10 05:05:36;;;;;;;27.98;7.13;;;9.80;99.90;;;;;;5013553;28;20061;-81
2022/11/10 05:08:02;;;;;;;22.17;6.95;;;9.80;99.90;;;;;;5012384;28;20525;-82
2022/11/10 05:10:28;;;;;;;30.83;7.03;;;9.80;99.90;;;;;;4978988;28;20049;-81
2022/11/10 05:12:55;;;;;;;21.05;6.63;;;9.80;99.90;;;;;;4994593;28;20057;-81
2022/11/10 05:15:22;;;;;;;29.90;7.55;;;9.80;99.90;;;;;;4993965;28;20139;-82
2022/11/10 05:17:53;;;;;;;31.15;7.10;;;9.80;99.90;;;;;;4994324;28;20061;-81
2022/11/10 05:20:24;;;;;;;27.33;7.45;;;9.90;99.90;;;;;;5012593;28;20046;-83
2022/11/10 05:25:40;;;;;;;28.58;6.25;;;9.80;99.90;;;;;;4995078;28;20058;-82
2022/11/10 05:28:09;;;;;;;25.35;6.20;;;9.80;99.90;;;;;;5012476;28;20463;-81
2022/11/10 05:30:35;;;;;;;27.80;5.88;;;9.80;99.90;;;;;;5011733;28;20056;-81
2022/11/10 05:33:01;;;;;;;22.42;6.25;;;9.80;99.90;;;;;;4994194;28;20053;-82
2022/11/10 05:35:27;;;;;;;25.05;6.85;;;9.90;99.90;;;;;;4994157;28;20049;-82
2022/11/10 05:37:53;;;;;;;29.75;7.85;;;9.90;99.90;;;;;;4998682;28;20046;-80
2022/11/10 05:40:19;;;;;;;25.48;6.30;;;9.90;99.90;;;;;;4994750;28;20061;-81
2022/11/10 05:42:47;;;;;;;25.75;6.32;;;9.90;99.90;;;;;;4993801;28;20493;-82
2022/11/10 05:45:14;;;;;;;27.80;6.50;;;9.90;99.90;;;;;;5011148;28;20061;-81
2022/11/10 05:47:40;;;;;;;17.30;5.50;;;9.90;99.90;;;;;;4993998;28;20191;-80
2022/11/10 05:50:08;;;;;;;20.00;6.50;;;9.90;99.90;;;;;;5013342;28;20064;-82
2022/11/10 05:52:34;;;;;;;35.22;6.68;;;9.90;99.90;;;;;;4996678;28;20049;-82
2022/11/10 05:55:01;;;;;;;31.60;6.60;;;9.90;99.90;;;;;;5011580;28;20057;-81
2022/11/10 05:57:26;;;;;;;22.75;5.68;;;9.90;99.90;;;;;;4993375;28;20066;-82
2022/11/10 05:59:52;;;;;;;28.90;6.25;;;9.90;99.90;;;;;;5011267;28;20444;-82
2022/11/10 06:02:18;;;;;;;22.67;5.35;;;10.00;99.90;;;;;;4993637;28;20050;-82
2022/11/10 06:04:44;;;;;;;31.55;6.10;;;10.00;99.90;;;;;;5013236;28;20074;-81
2022/11/10 06:07:10;;;;;;;26.88;6.30;;;10.00;99.90;;;;;;5012645;28;20132;-80
2022/11/10 06:09:36;;;;;;;27.73;5.47;;;10.00;99.90;;;;;;5011434;28;20197;-80
2022/11/10 06:12:03;;;;;;;27.92;6.32;;;10.00;99.90;;;;;;5010757;28;20124;-79
2022/11/10 06:14:29;;;;;;;22.17;5.25;;;10.00;99.90;;;;;;4977330;28;20068;-81
2022/11/10 06:16:55;;;;;;;28.15;6.20;;;10.00;99.90;;;;;;5010917;28;20144;-79
2022/11/10 06:19:21;;;;;;;27.15;5.93;;;10.00;99.90;;;;;;5013292;28;20133;-80
2022/11/10 06:21:47;;;;;;;24.42;5.30;;;10.00;99.90;;;;;;5011083;28;20057;-83
2022/11/10 06:24:13;;;;;;;32.92;5.93;;;10.00;99.90;;;;;;5011047;28;20053;-85
2022/11/10 06:26:39;;;;;;;25.00;5.72;;;10.00;99.90;;;;;;4994137;28;20057;-81
2022/11/10 06:29:05;;;;;;;31.05;5.50;;;10.00;99.90;;;;;;5010902;28;20128;-84
2022/11/10 06:31:31;;;;;;;28.15;5.28;;;10.00;99.90;;;;;;4995049;28;20136;-82
2022/11/10 06:33:57;;;;;;;22.33;5.72;;;10.00;99.90;;;;;;5011105;28;20050;-83
2022/11/10 06:36:23;;;;;;;29.17;6.18;;;10.00;99.90;;;;;;4979787;28;20080;-84
2022/11/10 06:38:49;;;;;;;27.58;6.10;;;10.00;99.90;;;;;;4997031;28;20766;-81
2022/11/10 06:41:15;;;;;;;22.08;5.47;;;10.00;99.90;;;;;;4996976;28;20777;-80
2022/11/10 06:43:40;;;;;;;27.15;5.82;;;10.00;99.90;;;;;;4997291;28;20120;-80
2022/11/10 06:46:06;;;;;;;27.63;5.10;;;10.00;99.90;;;;;;5017483;28;20069;-82
2022/11/10 06:48:32;;;;;;;26.65;5.85;;;10.00;99.90;;;;;;4997027;28;20054;-80
2022/11/10 06:51:01;;;;;;;32.72;4.97;;;10.10;99.90;;;;;;5014743;28;20459;-82
2022/11/10 06:53:27;;;;;;;28.58;5.35;;;10.00;99.90;;;;;;4980269;28;20104;-80
2022/11/10 06:55:53;;;;;;;27.52;5.82;;;10.10;99.90;;;;;;4996824;28;20520;-82
2022/11/10 06:58:19;;;;;;;29.52;5.13;;;10.10;99.90;;;;;;5015241;28;20139;-80
2022/11/10 07:00:45;;;;;;;33.28;5.13;;;10.10;99.90;;;;;;5018245;28;20514;-83
2022/11/10 07:03:13;;;;;;;35.65;6.72;;;10.10;99.90;;;;;;4981318;28;20132;-81
2022/11/10 07:05:39;;;;;;;33.10;5.57;;;10.10;99.90;;;;;;5014661;28;20259;-81
2022/11/10 07:08:17;;;;;;;20.10;4.60;;;10.10;99.90;;;;;;4997387;28;20410;-83
2022/11/10 07:10:49;;;;;;;24.10;4.85;;;10.10;99.90;;;;;;4997026;28;20054;-82
2022/11/10 07:13:16;;;;;;;22.70;4.30;;;10.10;99.90;;;;;;4997532;28;20050;-79
2022/11/10 07:15:42;;;;;;;20.33;4.43;;;10.10;99.90;;;;;;5016292;28;20092;-83
2022/11/10 07:18:08;;;;;;;24.33;5.00;;;10.10;99.90;;;;;;5019213;28;20089;-82
2022/11/10 07:20:34;;;;;;;30.02;6.10;;;10.10;99.90;;;;;;5014060;28;20046;-81
2022/11/10 07:23:02;;;;;;;26.38;5.70;;;10.10;99.90;;;;;;4996462;28;20524;-83
2022/11/10 07:25:30;;;;;;;25.88;4.72;;;10.10;99.90;;;;;;5013567;28;20053;-81
2022/11/10 07:27:58;;;;;;;23.67;4.35;;;10.10;99.90;;;;;;5014008;28;20085;-83
2022/11/10 07:30:29;;;;;;;21.98;4.80;;;10.10;99.90;;;;;;5014193;28;20074;-82
2022/11/10 07:32:58;;;;;;;26.05;4.70;;;10.20;99.90;;;;;;5013820;28;20413;-82
2022/11/10 07:35:24;;;;;;;20.80;4.20;;;10.20;99.90;;;;;;4996323;28;20402;-81
2022/11/10 07:37:50;;;;;;;26.08;4.80;;;10.20;99.90;;;;;;5016537;28;20053;-81
2022/11/10 07:40:16;;;;;;;25.55;4.75;;;10.20;99.90;;;;;;4995727;28;20419;-82
2022/11/10 07:42:42;;;;;;;18.05;3.88;;;10.20;99.90;;;;;;4995579;28;20046;-83
2022/11/10 07:45:08;;;;;;;29.10;5.72;;;10.30;99.90;;;;;;4980149;28;20076;-83
2022/11/10 07:47:34;;;;;;;21.83;4.20;;;10.30;99.90;;;;;;4994553;28;20058;-81
2022/11/10 07:50:00;;;;;;;20.63;4.95;;;10.30;99.90;;;;;;5013055;28;20064;-81
2022/11/10 07:52:26;;;;;;;34.67;5.68;;;10.40;99.90;;;;;;5013668;28;20050;-82
2022/11/10 07:54:52;;;;;;;25.98;4.82;;;10.40;99.90;;;;;;5013063;28;20050;-82
2022/11/10 07:57:18;;;;;;;26.50;4.32;;;10.50;99.90;;;;;;4998088;28;20053;-84
2022/11/10 07:59:43;;;;;;;36.15;5.53;;;10.50;99.90;;;;;;5013894;28;20414;-81
2022/11/10 08:02:10;;;;;;;22.75;4.78;;;10.60;99.90;;;;;;4996814;28;20431;-82
2022/11/10 08:04:36;;;;;;;23.33;4.13;;;10.70;99.90;;;;;;4981519;28;20062;-81
2022/11/10 08:07:02;;;;;;;22.80;4.07;;;10.70;99.90;;;;;;5013619;28;20058;-80
2022/11/10 08:09:28;;;;;;;38.22;5.65;;;10.80;99.90;;;;;;4996164;28;20061;-81
2022/11/10 08:11:54;;;;;;;25.63;4.07;;;10.90;99.90;;;;;;5015868;28;20046;-82
2022/11/10 08:14:20;;;;;;;32.78;5.18;;;11.00;99.90;;;;;;4995885;28;20058;-82
2022/11/10 08:16:46;;;;;;;38.40;4.95;;;11.00;99.90;;;;;;4995111;28;20454;-83
2022/11/10 08:19:12;;;;;;;20.98;4.38;;;11.10;99.90;;;;;;5013011;28;20112;-82
2022/11/10 08:21:38;;;;;;;24.33;4.00;;;11.20;99.90;;;;;;5012931;28;20046;-83
2022/11/10 08:24:04;;;;;;;28.10;6.40;;;11.20;99.90;;;;;;4996422;28;20046;-83
2022/11/10 08:26:31;;;;;;;21.90;3.78;;;11.20;99.90;;;;;;5014312;28;20137;-81
2022/11/10 08:28:57;;;;;;;22.65;3.40;;;11.20;99.90;;;;;;5012967;28;20049;-83
2022/11/10 08:31:23;;;;;;;31.27;4.90;;;11.20;99.90;;;;;;5012738;28;20619;-81
2022/11/10 08:33:49;;;;;;;23.60;4.35;;;11.20;99.90;;;;;;4994925;28;20058;-81
2022/11/10 08:36:15;;;;;;;17.58;3.85;;;11.10;99.90;;;;;;5012823;28;20050;-80
2022/11/10 08:38:42;;;;;;;26.90;4.72;;;11.20;99.90;;;;;;5012751;28;20197;-80
2022/11/10 08:41:08;;;;;;;23.15;3.90;;;11.20;99.90;;;;;;5016603;28;20053;-80
2022/11/10 08:43:34;;;;;;;19.98;4.00;;;11.20;99.90;;;;;;5017812;28;20049;-80
2022/11/10 08:46:00;;;;;;;34.17;5.63;;;11.20;99.90;;;;;;5012748;28;20513;-81
2022/11/10 08:48:26;;;;;;;28.33;4.28;;;11.30;99.90;;;;;;5012395;28;20050;-80
2022/11/10 08:50:53;;;;;;;24.58;4.13;;;11.30;99.90;;;;;;4962281;28;20620;-81
2022/11/10 08:53:23;;;;;;;23.40;3.88;;;11.40;99.90;;;;;;4994510;28;20072;-81
2022/11/10 08:55:50;;;;;;;25.48;4.45;;;11.60;99.90;;;;;;4995107;28;20151;-79
2022/11/10 08:58:18;;;;;;;34.80;4.65;;;11.70;99.90;;;;;;5000978;28;20050;-82
2022/11/10 09:00:44;;;;;;;18.70;3.63;;;11.80;99.90;;;;;;4994507;28;20046;-81
2022/11/10 09:03:13;;;;;;;25.10;3.30;;;11.80;99.90;;;;;;5012227;28;20064;-81
2022/11/10 09:05:40;;;;;;;18.20;4.28;;;11.90;99.90;;;;;;5012633;28;20046;-83
2022/11/10 09:08:07;;;;;;;25.08;4.68;;;12.00;99.90;;;;;;4995234;28;20050;-80
2022/11/10 09:10:42;;;;;;;45.15;6.78;;;12.00;99.90;;;;;;4979877;28;20060;-80
2022/11/10 09:13:12;;;;;;;23.58;4.78;;;12.10;99.90;;;;;;4980579;28;20627;-82
2022/11/10 09:15:38;;;;;;;21.60;3.92;;;12.10;99.90;;;;;;5011910;28;20054;-82
2022/11/10 09:18:06;;;;;;;23.02;4.82;;;12.20;99.90;;;;;;5011209;28;20046;-81
2022/11/10 09:20:34;;;;;;;22.05;3.97;;;12.20;99.90;;;;;;5012826;28;20062;-81
2022/11/10 09:23:18;;;;;;;19.58;4.30;;;12.30;99.90;;;;;;5012108;28;20045;-82
2022/11/10 09:25:49;;;;;;;18.52;4.75;;;12.40;99.90;;;;;;4997737;28;20527;-81
2022/11/10 09:28:16;;;;;;;30.73;5.90;;;12.50;99.90;;;;;;4995073;28;20089;-83
2022/11/10 09:30:45;;;;;;;26.92;4.68;;;12.60;99.90;;;;;;5011469;28;20108;-81
2022/11/10 09:33:11;;;;;;;27.42;4.47;;;12.60;99.90;;;;;;4977679;28;20054;-81
2022/11/10 09:35:37;;;;;;;19.08;3.83;;;12.60;99.90;;;;;;4994017;28;20050;-80
2022/11/10 09:38:03;;;;;;;19.30;3.33;;;12.60;99.90;;;;;;4995116;28;20144;-81
2022/11/10 09:40:35;;;;;;;30.85;4.18;;;12.50;99.90;;;;;;4981423;28;20049;-81
2022/11/10 09:43:02;;;;;;;19.83;3.75;;;12.50;99.90;;;;;;5011812;28;20049;-83
2022/11/10 09:45:42;;;;;;;26.90;4.45;;;12.60;99.90;;;;;;4993378;28;20057;-80
2022/11/10 09:48:49;;;;;;;19.55;3.53;;;12.60;99.90;;;;;;5011070;28;20088;-80
2022/11/10 09:51:26;;;;;;;27.17;4.72;;;12.70;99.90;;;;;;4915408;29;20419;-82
2022/11/10 09:54:00;;;;;;;20.05;4.40;;;12.80;99.90;;;;;;4999561;28;20046;-82
2022/11/10 09:56:36;;;;;;;20.42;5.32;;;12.90;99.90;;;;;;4995962;28;20410;-80
2022/11/10 09:59:09;;;;;;;29.48;7.38;;;12.90;99.90;;;;;;4993894;28;20076;-82
2022/11/10 10:01:47;;;;;;;25.63;5.22;;;13.10;99.90;;;;;;4993960;28;20405;-83
2022/11/10 10:04:31;;;;;;;18.90;3.47;;;13.10;99.90;;;;;;4993263;28;20066;-82
2022/11/10 10:07:07;;;;;;;17.80;4.20;;;13.10;99.90;;;;;;4993505;28;20398;-82
2022/11/10 10:09:52;;;;;;;22.42;5.00;;;13.10;99.90;;;;;;4992793;28;20053;-82
2022/11/10 10:12:41;;;;;;;22.90;4.50;;;13.10;99.90;;;;;;5011579;28;20049;-82
2022/11/10 10:15:16;;;;;;;23.02;4.22;;;13.00;99.90;;;;;;4979823;28;20462;-83
2022/11/10 10:17:57;;;;;;;27.48;5.47;;;13.00;99.90;;;;;;4995353;28;20046;-81
2022/11/10 10:20:26;;;;;;;23.08;5.18;;;13.00;99.90;;;;;;4993401;28;20049;-81
2022/11/10 10:22:57;;;;;;;24.73;4.35;;;13.10;99.90;;;;;;4993422;28;20049;-81
2022/11/10 10:25:26;;;;;;;24.15;4.55;;;13.10;99.90;;;;;;4993703;28;20414;-82
2022/11/10 10:28:19;;;;;;;23.90;5.13;;;13.00;99.90;;;;;;4993069;28;20053;-81
2022/11/10 10:30:45;;;;;;;24.92;4.90;;;13.00;99.90;;;;;;5011088;28;20057;-81
2022/11/10 10:33:17;;;;;;;18.02;4.18;;;13.00;99.90;;;;;;4997167;28;20054;-81
2022/11/10 10:35:46;;;;;;;22.63;4.78;;;13.10;99.90;;;;;;4994153;28;20096;-84
2022/11/10 10:38:35;;;;;;;28.00;5.90;;;13.20;99.90;;;;;;5010799;28;20512;-81
2022/11/10 10:41:21;;;;;;;20.23;4.45;;;13.40;99.90;;;;;;4994143;28;20046;-84
2022/11/10 10:43:50;;;;;;;20.65;4.00;;;13.70;99.90;;;;;;4997309;28;20409;-82
2022/11/10 10:46:17;;;;;;;20.98;4.38;;;13.70;99.90;;;;;;4993102;28;20054;-82
2022/11/10 10:48:43;;;;;;;22.48;4.28;;;13.90;99.90;;;;;;4993756;28;20509;-82
2022/11/10 10:51:10;;;;;;;21.25;4.80;;;14.00;99.90;;;;;;4979735;28;20112;-81
2022/11/10 10:53:46;;;;;;;21.83;4.10;;;14.40;99.90;;;;;;4998600;28;20049;-82
2022/11/10 10:56:21;;;;;;;20.98;4.47;;;14.50;99.90;;;;;;4983583;28;20046;-82
2022/11/10 10:59:01;;;;;;;17.05;3.90;;;14.50;99.90;;;;;;4997332;28;20061;-81
2022/11/10 11:01:37;;;;;;;19.38;4.18;;;14.40;99.90;;;;;;5013464;28;20058;-81
2022/11/10 11:04:36;;;;;;;20.58;3.42;;;14.10;99.90;;;;;;5012238;28;20050;-81
2022/11/10 11:07:27;;;;;;;18.70;4.00;;;13.90;99.90;;;;;;5011633;28;20053;-82
2022/11/10 11:09:53;;;;;;;18.60;3.50;;;13.70;99.90;;;;;;5012666;28;20129;-81
2022/11/10 11:12:19;;;;;;;20.20;4.65;;;13.60;99.90;;;;;;4960944;28;20145;-81
2022/11/10 11:14:46;;;;;;;23.02;4.55;;;13.50;99.90;;;;;;4993934;28;20133;-85
2022/11/10 11:17:18;;;;;;;17.00;4.40;;;13.50;99.90;;;;;;4994111;28;20057;-82
2022/11/10 11:19:44;;;;;;;21.38;3.53;;;13.40;99.90;;;;;;5012373;28;20073;-83
2022/11/10 11:22:29;;;;;;;19.48;4.38;;;13.40;99.90;;;;;;5020182;28;20057;-83
2022/11/10 11:25:26;;;;;;;28.92;4.47;;;13.30;99.90;;;;;;5016748;28;20564;-82
2022/11/10 11:28:02;;;;;;;25.08;5.25;;;13.20;99.90;;;;;;5014585;28;20084;-80
2022/11/10 11:30:58;;;;;;;18.58;4.05;;;13.20;99.90;;;;;;4998266;28;20085;-85
2022/11/10 11:33:47;;;;;;;22.88;5.45;;;13.20;99.90;;;;;;5017568;28;20085;-82
2022/11/10 11:36:18;;;;;;;22.67;4.95;;;13.20;99.90;;;;;;5017468;28;20060;-81
2022/11/10 11:39:22;;;;;;;17.85;4.10;;;13.10;99.90;;;;;;5002442;28;20494;-80
2022/11/10 11:42:07;;;;;;;24.05;6.45;;;13.10;99.90;;;;;;4999410;28;20054;-80
2022/11/10 11:44:54;;;;;;;20.58;4.93;;;13.00;99.90;;;;;;5016554;28;20113;-83
2022/11/10 11:47:50;;;;;;;26.83;5.65;;;13.00;99.90;;;;;;5013563;28;20158;-81
2022/11/10 11:50:36;;;;;;;31.13;6.22;;;12.90;99.90;;;;;;4979660;28;20206;-86
2022/11/10 11:53:22;;;;;;;20.98;5.85;;;12.80;99.90;;;;;;5013744;28;20379;-82
2022/11/10 11:56:00;;;;;;;25.23;6.22;;;12.80;99.90;;;;;;5016457;28;20050;-81
2022/11/10 11:59:05;;;;;;;24.13;5.53;;;12.80;99.90;;;;;;4995984;28;20141;-81
2022/11/10 12:01:56;;;;;;;28.20;6.75;;;12.70;99.90;;;;;;4966265;28;20084;-82
2022/11/10 12:04:43;;;;;;;34.08;6.15;;;12.70;99.90;;;;;;5013522;28;20121;-84
2022/11/10 12:07:27;;;;;;;22.88;5.55;;;12.70;99.90;;;;;;5014746;28;20056;-80
2022/11/10 12:10:30;;;;;;;28.00;6.87;;;12.60;99.90;;;;;;5002977;28;20417;-81
2022/11/10 12:12:58;;;;;;;24.52;6.22;;;12.60;99.90;;;;;;5005468;28;20284;-82
2022/11/10 12:15:48;;;;;;;25.58;6.45;;;12.60;99.90;;;;;;5004857;28;20057;-82
2022/11/10 12:18:32;;;;;;;26.88;5.97;;;12.60;99.90;;;;;;5018137;28;20107;-83
2022/11/10 12:21:20;;;;;;;20.40;6.53;;;12.60;99.90;;;;;;4997837;28;20083;-84
2022/11/10 12:24:00;;;;;;;26.48;5.78;;;12.50;99.90;;;;;;5013122;28;20532;-82
2022/11/10 12:26:47;;;;;;;27.08;6.03;;;12.50;99.90;;;;;;5012923;28;20061;-83
2022/11/10 12:29:41;;;;;;;31.45;6.07;;;12.40;99.90;;;;;;5013204;28;20054;-85
2022/11/10 12:32:27;;;;;;;25.92;6.07;;;12.40;99.90;;;;;;5017648;28;20058;-82
2022/11/10 12:35:22;;;;;;;19.88;5.30;;;12.40;99.90;;;;;;5015571;28;20057;-84
2022/11/10 12:38:11;;;;;;;23.70;5.57;;;12.40;99.90;;;;;;4981069;28;20053;-84
2022/11/10 12:40:41;;;;;;;23.55;5.47;;;12.40;99.90;;;;;;4981543;28;20526;-84
2022/11/10 12:43:33;;;;;;;23.42;5.72;;;12.40;99.90;;;;;;4996214;28;20521;-85
2022/11/10 12:46:03;;;;;;;24.88;5.15;;;12.50;99.90;;;;;;5012730;28;20072;-83
2022/11/10 12:49:08;;;;;;;26.98;5.90;;;12.50;99.90;;;;;;4996421;28;20046;-81
2022/11/10 12:52:06;;;;;;;23.83;5.28;;;12.50;99.90;;;;;;5003743;28;20077;-85
2022/11/10 12:54:34;;;;;;;28.00;4.82;;;12.50;99.90;;;;;;4985805;28;20153;-82
2022/11/10 12:57:15;;;;;;;22.10;4.25;;;12.50;99.90;;;;;;5014142;28;20062;-82
2022/11/10 13:00:01;;;;;;;26.42;5.05;;;12.50;99.90;;;;;;5012962;28;20050;-84
2022/11/10 13:02:39;;;;;;;23.42;4.95;;;12.60;99.90;;;;;;4995325;28;20053;-85
2022/11/10 13:05:25;;;;;;;29.38;6.47;;;12.60;99.90;;;;;;5016235;28;20056;-83
2022/11/10 13:08:12;;;;;;;27.67;4.78;;;12.60;99.90;;;;;;5000442;28;20041;-84
2022/11/10 13:10:59;;;;;;;19.55;4.93;;;12.70;99.90;;;;;;4994709;28;20046;-85
2022/11/10 13:13:25;;;;;;;30.42;6.53;;;12.60;99.90;;;;;;5012498;28;20700;-81
2022/11/10 13:15:56;;;;;;;36.10;6.15;;;12.70;99.90;;;;;;5011487;28;20060;-82
2022/11/10 13:18:48;;;;;;;26.23;6.18;;;12.80;99.90;;;;;;4995012;28;20132;-81